sensor_id;sensor_type;location;lat;lon;timestamp;temperature;humidity
7206;DHT22;3644;53.480;10.004;2023-05-21T00:00:41;14.60;99.90
7206;DHT22;3644;53.480;10.004;2023-05-21T00:03:06;14.60;99.90
7206;DHT22;3644;53.480;10.004;2023-05-21T00:05:41;14.60;99.90
7206;DHT22;3644;53.480;10.004;2023-05-21T00:08:07;14.50;99.90
7206;DHT22;3644;53.480;10.004;2023-05-21T00:10:32;14.40;99.90
7206;DHT22;3644;53.480;10.004;2023-05-21T00:12:58;14.30;99.90
7206;DHT22;3644;53.480;10.004;2023-05-21T00:15:23;14.50;99.90
7206;DHT22;3644;53.480;10.004;2023-05-21T00:17:49;14.40;99.90
7206;DHT22;3644;53.480;10.004;2023-05-21T00:20:15;14.30;99.90
7206;DHT22;3644;53.480;10.004;2023-05-21T00:22:41;14.30;99.90
7206;DHT22;3644;53.480;10.004;2023-05-21T00:25:07;14.10;99.90
7206;DHT22;3644;53.480;10.004;2023-05-21T00:27:33;14.20;99.90
7206;DHT22;3644;53.480;10.004;2023-05-21T00:29:58;14.40;99.90
7206;DHT22;3644;53.480;10.004;2023-05-21T00:32:24;14.40;99.90
7206;DHT22;3644;53.480;10.004;2023-05-21T00:34:49;14.40;99.90
7206;DHT22;3644;53.480;10.004;2023-05-21T00:37:15;14.40;99.90
7206;DHT22;3644;53.480;10.004;2023-05-21T00:39:41;14.30;99.90
7206;DHT22;3644;53.480;10.004;2023-05-21T00:42:06;14.30;99.90
7206;DHT22;3644;53.480;10.004;2023-05-21T00:44:32;14.30;99.90
7206;DHT22;3644;53.480;10.004;2023-05-21T00:46:59;14.40;99.90
7206;DHT22;3644;53.480;10.004;2023-05-21T00:49:26;14.50;99.90
7206;DHT22;3644;53.480;10.004;2023-05-21T00:51:52;14.40;99.90
7206;DHT22;3644;53.480;10.004;2023-05-21T00:54:19;14.40;99.90
7206;DHT22;3644;53.480;10.004;2023-05-21T00:56:46;14.30;99.90
7206;DHT22;3644;53.480;10.004;2023-05-21T00:59:13;14.20;99.90
7206;DHT22;3644;53.480;10.004;2023-05-21T01:01:41;14.10;99.90
7206;DHT22;3644;53.480;10.004;2023-05-21T01:04:07;14.30;99.90
7206;DHT22;3644;53.480;10.004;2023-05-21T01:06:33;14.20;99.90
7206;DHT22;3644;53.480;10.004;2023-05-21T01:09:00;14.10;99.90
7206;DHT22;3644;53.480;10.004;2023-05-21T01:11:52;13.90;99.90
7206;DHT22;3644;53.480;10.004;2023-05-21T01:14:20;13.80;99.90
7206;DHT22;3644;53.480;10.004;2023-05-21T01:16:48;13.90;99.90
7206;DHT22;3644;53.480;10.004;2023-05-21T01:19:16;13.90;99.90
7206;DHT22;3644;53.480;10.004;2023-05-21T01:21:45;14.00;99.90
7206;DHT22;3644;53.480;10.004;2023-05-21T01:24:12;14.10;99.90
7206;DHT22;3644;53.480;10.004;2023-05-21T01:26:38;14.20;99.90
7206;DHT22;3644;53.480;10.004;2023-05-21T01:29:07;14.10;99.90
7206;DHT22;3644;53.480;10.004;2023-05-21T01:32:05;14.10;99.90
7206;DHT22;3644;53.480;10.004;2023-05-21T01:37:26;14.00;99.90
7206;DHT22;3644;53.480;10.004;2023-05-21T01:40:10;14.10;99.90
7206;DHT22;3644;53.480;10.004;2023-05-21T01:42:38;13.90;99.90
7206;DHT22;3644;53.480;10.004;2023-05-21T01:45:05;14.00;99.90
7206;DHT22;3644;53.480;10.004;2023-05-21T01:47:32;14.00;99.90
7206;DHT22;3644;53.480;10.004;2023-05-21T01:49:59;13.90;99.90
7206;DHT22;3644;53.480;10.004;2023-05-21T01:52:25;13.90;99.90
7206;DHT22;3644;53.480;10.004;2023-05-21T01:54:51;14.10;99.90
7206;DHT22;3644;53.480;10.004;2023-05-21T01:57:19;14.10;99.90
7206;DHT22;3644;53.480;10.004;2023-05-21T01:59:44;13.80;99.90
7206;DHT22;3644;53.480;10.004;2023-05-21T02:02:12;13.90;99.90
7206;DHT22;3644;53.480;10.004;2023-05-21T02:04:37;14.00;99.90
7206;DHT22;3644;53.480;10.004;2023-05-21T02:07:05;14.00;99.90
7206;DHT22;3644;53.480;10.004;2023-05-21T02:09:31;14.00;99.90
7206;DHT22;3644;53.480;10.004;2023-05-21T02:11:56;14.00;99.90
7206;DHT22;3644;53.480;10.004;2023-05-21T02:14:22;13.90;99.90
7206;DHT22;3644;53.480;10.004;2023-05-21T02:16:49;13.90;99.90
7206;DHT22;3644;53.480;10.004;2023-05-21T02:19:17;13.90;99.90
7206;DHT22;3644;53.480;10.004;2023-05-21T02:21:42;13.90;99.90
7206;DHT22;3644;53.480;10.004;2023-05-21T02:24:08;13.90;99.90
7206;DHT22;3644;53.480;10.004;2023-05-21T02:26:33;13.70;99.90
7206;DHT22;3644;53.480;10.004;2023-05-21T02:28:59;13.70;99.90
7206;DHT22;3644;53.480;10.004;2023-05-21T02:31:24;13.70;99.90
7206;DHT22;3644;53.480;10.004;2023-05-21T02:33:50;13.80;99.90
7206;DHT22;3644;53.480;10.004;2023-05-21T02:36:15;13.80;99.90
7206;DHT22;3644;53.480;10.004;2023-05-21T02:38:43;13.70;99.90
7206;DHT22;3644;53.480;10.004;2023-05-21T02:41:10;13.90;99.90
7206;DHT22;3644;53.480;10.004;2023-05-21T02:43:36;13.80;99.90
7206;DHT22;3644;53.480;10.004;2023-05-21T02:46:01;13.90;99.90
7206;DHT22;3644;53.480;10.004;2023-05-21T02:48:27;13.90;99.90
7206;DHT22;3644;53.480;10.004;2023-05-21T02:50:52;13.80;99.90
7206;DHT22;3644;53.480;10.004;2023-05-21T02:53:18;13.70;99.90
7206;DHT22;3644;53.480;10.004;2023-05-21T02:55:44;13.70;99.90
7206;DHT22;3644;53.480;10.004;2023-05-21T02:58:09;13.60;99.90
7206;DHT22;3644;53.480;10.004;2023-05-21T03:00:37;13.50;99.90
7206;DHT22;3644;53.480;10.004;2023-05-21T03:03:03;13.60;99.90
7206;DHT22;3644;53.480;10.004;2023-05-21T03:05:29;13.50;99.90
7206;DHT22;3644;53.480;10.004;2023-05-21T03:07:55;13.60;99.90
7206;DHT22;3644;53.480;10.004;2023-05-21T03:10:20;13.50;99.90
7206;DHT22;3644;53.480;10.004;2023-05-21T03:12:46;13.70;99.90
7206;DHT22;3644;53.480;10.004;2023-05-21T03:15:11;13.80;99.90
7206;DHT22;3644;53.480;10.004;2023-05-21T03:17:40;13.90;99.90
7206;DHT22;3644;53.480;10.004;2023-05-21T03:20:09;13.90;99.90
7206;DHT22;3644;53.480;10.004;2023-05-21T03:22:43;13.80;99.90
7206;DHT22;3644;53.480;10.004;2023-05-21T03:25:09;13.80;99.90
7206;DHT22;3644;53.480;10.004;2023-05-21T03:27:36;13.90;99.90
7206;DHT22;3644;53.480;10.004;2023-05-21T03:30:02;13.70;99.90
7206;DHT22;3644;53.480;10.004;2023-05-21T03:32:27;13.70;99.90
7206;DHT22;3644;53.480;10.004;2023-05-21T03:34:53;13.70;99.90
7206;DHT22;3644;53.480;10.004;2023-05-21T03:37:18;13.80;99.90
7206;DHT22;3644;53.480;10.004;2023-05-21T03:39:44;13.80;99.90
7206;DHT22;3644;53.480;10.004;2023-05-21T03:42:09;13.70;99.90
7206;DHT22;3644;53.480;10.004;2023-05-21T03:44:35;13.80;99.90
7206;DHT22;3644;53.480;10.004;2023-05-21T03:47:00;13.70;99.90
7206;DHT22;3644;53.480;10.004;2023-05-21T03:49:26;13.80;99.90
7206;DHT22;3644;53.480;10.004;2023-05-21T03:51:51;13.50;99.90
7206;DHT22;3644;53.480;10.004;2023-05-21T03:54:17;13.50;99.90
7206;DHT22;3644;53.480;10.004;2023-05-21T03:56:43;13.70;99.90
7206;DHT22;3644;53.480;10.004;2023-05-21T03:59:08;13.70;99.90
7206;DHT22;3644;53.480;10.004;2023-05-21T04:01:34;13.70;99.90
7206;DHT22;3644;53.480;10.004;2023-05-21T04:04:00;13.60;99.90
7206;DHT22;3644;53.480;10.004;2023-05-21T04:06:26;13.50;99.90
7206;DHT22;3644;53.480;10.004;2023-05-21T04:08:52;13.60;99.90
7206;DHT22;3644;53.480;10.004;2023-05-21T04:11:17;13.60;99.90
7206;DHT22;3644;53.480;10.004;2023-05-21T04:13:43;13.60;99.90
7206;DHT22;3644;53.480;10.004;2023-05-21T04:16:08;13.60;99.90
7206;DHT22;3644;53.480;10.004;2023-05-21T04:18:34;13.70;99.90
7206;DHT22;3644;53.480;10.004;2023-05-21T04:20:59;13.60;99.90
7206;DHT22;3644;53.480;10.004;2023-05-21T04:23:26;13.70;99.90
7206;DHT22;3644;53.480;10.004;2023-05-21T04:25:52;13.70;99.90
7206;DHT22;3644;53.480;10.004;2023-05-21T04:28:18;13.50;99.90
7206;DHT22;3644;53.480;10.004;2023-05-21T04:30:45;13.50;99.90
7206;DHT22;3644;53.480;10.004;2023-05-21T04:33:10;13.50;99.90
7206;DHT22;3644;53.480;10.004;2023-05-21T04:35:36;13.70;99.90
7206;DHT22;3644;53.480;10.004;2023-05-21T04:38:01;13.70;99.90
7206;DHT22;3644;53.480;10.004;2023-05-21T04:40:29;14.00;99.90
7206;DHT22;3644;53.480;10.004;2023-05-21T04:42:55;14.20;99.90
7206;DHT22;3644;53.480;10.004;2023-05-21T04:45:20;14.40;99.90
7206;DHT22;3644;53.480;10.004;2023-05-21T04:47:48;14.50;99.90
7206;DHT22;3644;53.480;10.004;2023-05-21T04:50:14;14.60;99.90
7206;DHT22;3644;53.480;10.004;2023-05-21T04:52:39;14.60;99.90
7206;DHT22;3644;53.480;10.004;2023-05-21T04:55:06;14.60;99.90
7206;DHT22;3644;53.480;10.004;2023-05-21T04:57:32;14.80;99.90
7206;DHT22;3644;53.480;10.004;2023-05-21T04:59:57;15.00;99.90
7206;DHT22;3644;53.480;10.004;2023-05-21T05:02:23;15.10;99.90
7206;DHT22;3644;53.480;10.004;2023-05-21T05:04:48;15.10;99.90
7206;DHT22;3644;53.480;10.004;2023-05-21T05:07:14;14.90;99.90
7206;DHT22;3644;53.480;10.004;2023-05-21T05:09:39;14.60;99.90
7206;DHT22;3644;53.480;10.004;2023-05-21T05:12:05;14.80;99.90
7206;DHT22;3644;53.480;10.004;2023-05-21T05:14:31;14.90;99.90
7206;DHT22;3644;53.480;10.004;2023-05-21T05:16:57;15.10;99.90
7206;DHT22;3644;53.480;10.004;2023-05-21T05:19:25;15.20;99.90
7206;DHT22;3644;53.480;10.004;2023-05-21T05:21:50;15.30;99.90
7206;DHT22;3644;53.480;10.004;2023-05-21T05:24:16;15.40;99.90
7206;DHT22;3644;53.480;10.004;2023-05-21T05:26:41;15.70;99.90
7206;DHT22;3644;53.480;10.004;2023-05-21T05:29:07;15.80;99.90
7206;DHT22;3644;53.480;10.004;2023-05-21T05:31:32;15.90;99.90
7206;DHT22;3644;53.480;10.004;2023-05-21T05:33:58;15.80;99.90
7206;DHT22;3644;53.480;10.004;2023-05-21T05:36:24;15.80;99.90
7206;DHT22;3644;53.480;10.004;2023-05-21T05:38:50;16.00;99.90
7206;DHT22;3644;53.480;10.004;2023-05-21T05:41:15;16.00;99.90
7206;DHT22;3644;53.480;10.004;2023-05-21T05:43:41;16.00;99.90
7206;DHT22;3644;53.480;10.004;2023-05-21T05:46:06;16.00;99.90
7206;DHT22;3644;53.480;10.004;2023-05-21T05:48:32;15.90;99.90
7206;DHT22;3644;53.480;10.004;2023-05-21T05:50:57;16.00;99.90
7206;DHT22;3644;53.480;10.004;2023-05-21T05:53:23;16.00;99.90
7206;DHT22;3644;53.480;10.004;2023-05-21T05:55:48;15.90;99.90
7206;DHT22;3644;53.480;10.004;2023-05-21T05:58:14;16.20;99.90
7206;DHT22;3644;53.480;10.004;2023-05-21T06:00:39;16.60;99.90
7206;DHT22;3644;53.480;10.004;2023-05-21T06:03:05;16.60;99.90
7206;DHT22;3644;53.480;10.004;2023-05-21T06:05:31;16.70;99.90
7206;DHT22;3644;53.480;10.004;2023-05-21T06:07:56;16.70;99.90
7206;DHT22;3644;53.480;10.004;2023-05-21T06:10:22;16.80;99.90
7206;DHT22;3644;53.480;10.004;2023-05-21T06:12:47;16.90;99.90
7206;DHT22;3644;53.480;10.004;2023-05-21T06:15:13;17.00;99.90
7206;DHT22;3644;53.480;10.004;2023-05-21T06:17:39;16.90;99.90
7206;DHT22;3644;53.480;10.004;2023-05-21T06:20:07;16.80;99.90
7206;DHT22;3644;53.480;10.004;2023-05-21T06:22:33;17.00;99.90
7206;DHT22;3644;53.480;10.004;2023-05-21T06:24:58;16.90;99.90
7206;DHT22;3644;53.480;10.004;2023-05-21T06:27:24;17.00;99.90
7206;DHT22;3644;53.480;10.004;2023-05-21T06:29:49;17.10;99.90
7206;DHT22;3644;53.480;10.004;2023-05-21T06:32:15;17.40;99.90
7206;DHT22;3644;53.480;10.004;2023-05-21T06:34:41;17.60;99.90
7206;DHT22;3644;53.480;10.004;2023-05-21T06:37:06;17.60;99.90
7206;DHT22;3644;53.480;10.004;2023-05-21T06:39:32;17.90;99.90
7206;DHT22;3644;53.480;10.004;2023-05-21T06:41:57;18.00;99.90
7206;DHT22;3644;53.480;10.004;2023-05-21T06:44:23;18.10;99.90
7206;DHT22;3644;53.480;10.004;2023-05-21T06:46:48;18.30;99.90
7206;DHT22;3644;53.480;10.004;2023-05-21T06:49:14;18.30;99.90
7206;DHT22;3644;53.480;10.004;2023-05-21T06:51:39;18.30;99.90
7206;DHT22;3644;53.480;10.004;2023-05-21T06:54:05;18.10;99.90
7206;DHT22;3644;53.480;10.004;2023-05-21T06:56:30;17.90;99.90
7206;DHT22;3644;53.480;10.004;2023-05-21T06:58:56;17.70;99.90
7206;DHT22;3644;53.480;10.004;2023-05-21T07:01:22;17.60;99.90
7206;DHT22;3644;53.480;10.004;2023-05-21T07:03:48;17.90;99.90
7206;DHT22;3644;53.480;10.004;2023-05-21T07:06:13;18.10;99.90
7206;DHT22;3644;53.480;10.004;2023-05-21T07:08:38;18.20;99.90
7206;DHT22;3644;53.480;10.004;2023-05-21T07:11:04;18.00;99.90
7206;DHT22;3644;53.480;10.004;2023-05-21T07:13:30;18.00;99.90
7206;DHT22;3644;53.480;10.004;2023-05-21T07:15:55;17.90;99.90
7206;DHT22;3644;53.480;10.004;2023-05-21T07:18:21;18.00;99.90
7206;DHT22;3644;53.480;10.004;2023-05-21T07:20:46;18.00;99.90
7206;DHT22;3644;53.480;10.004;2023-05-21T07:23:12;18.20;99.90
7206;DHT22;3644;53.480;10.004;2023-05-21T07:25:37;18.40;99.90
7206;DHT22;3644;53.480;10.004;2023-05-21T07:28:03;19.00;99.90
7206;DHT22;3644;53.480;10.004;2023-05-21T07:30:28;19.10;99.90
7206;DHT22;3644;53.480;10.004;2023-05-21T07:32:54;19.20;99.90
7206;DHT22;3644;53.480;10.004;2023-05-21T07:35:19;19.30;99.90
7206;DHT22;3644;53.480;10.004;2023-05-21T07:37:45;19.20;99.90
7206;DHT22;3644;53.480;10.004;2023-05-21T07:40:12;19.40;99.90
7206;DHT22;3644;53.480;10.004;2023-05-21T07:42:37;19.50;99.90
7206;DHT22;3644;53.480;10.004;2023-05-21T07:45:03;19.50;99.90
7206;DHT22;3644;53.480;10.004;2023-05-21T07:47:29;19.80;99.90
7206;DHT22;3644;53.480;10.004;2023-05-21T07:49:54;20.00;99.90
7206;DHT22;3644;53.480;10.004;2023-05-21T07:52:20;20.10;99.90
7206;DHT22;3644;53.480;10.004;2023-05-21T07:54:45;20.20;99.90
7206;DHT22;3644;53.480;10.004;2023-05-21T07:57:11;19.80;99.90
7206;DHT22;3644;53.480;10.004;2023-05-21T07:59:36;19.90;99.90
7206;DHT22;3644;53.480;10.004;2023-05-21T08:02:02;20.20;99.90
7206;DHT22;3644;53.480;10.004;2023-05-21T08:04:27;20.30;99.90
7206;DHT22;3644;53.480;10.004;2023-05-21T08:06:53;20.10;99.90
7206;DHT22;3644;53.480;10.004;2023-05-21T08:09:18;19.90;99.90
7206;DHT22;3644;53.480;10.004;2023-05-21T08:11:44;19.90;99.90
7206;DHT22;3644;53.480;10.004;2023-05-21T08:14:10;20.10;99.90
7206;DHT22;3644;53.480;10.004;2023-05-21T08:16:36;20.30;99.90
7206;DHT22;3644;53.480;10.004;2023-05-21T08:19:02;20.60;99.90
7206;DHT22;3644;53.480;10.004;2023-05-21T08:21:27;20.30;99.90
7206;DHT22;3644;53.480;10.004;2023-05-21T08:23:53;20.40;99.90
7206;DHT22;3644;53.480;10.004;2023-05-21T08:26:18;20.30;99.90
7206;DHT22;3644;53.480;10.004;2023-05-21T08:28:44;20.40;99.90
7206;DHT22;3644;53.480;10.004;2023-05-21T08:31:09;20.80;99.90
7206;DHT22;3644;53.480;10.004;2023-05-21T08:33:35;20.80;99.90
7206;DHT22;3644;53.480;10.004;2023-05-21T08:36:05;20.90;99.90
7206;DHT22;3644;53.480;10.004;2023-05-21T08:38:31;20.80;99.90
7206;DHT22;3644;53.480;10.004;2023-05-21T08:40:58;20.90;99.90
7206;DHT22;3644;53.480;10.004;2023-05-21T08:43:27;20.70;99.90
7206;DHT22;3644;53.480;10.004;2023-05-21T08:45:53;20.70;99.90
7206;DHT22;3644;53.480;10.004;2023-05-21T08:48:21;20.80;99.90
7206;DHT22;3644;53.480;10.004;2023-05-21T08:50:51;20.80;99.90
7206;DHT22;3644;53.480;10.004;2023-05-21T08:53:17;20.80;99.90
7206;DHT22;3644;53.480;10.004;2023-05-21T08:55:42;21.00;99.90
7206;DHT22;3644;53.480;10.004;2023-05-21T08:58:09;21.10;99.90
7206;DHT22;3644;53.480;10.004;2023-05-21T09:00:34;21.30;99.90
7206;DHT22;3644;53.480;10.004;2023-05-21T09:03:00;21.50;99.90
7206;DHT22;3644;53.480;10.004;2023-05-21T09:05:27;21.30;99.90
7206;DHT22;3644;53.480;10.004;2023-05-21T09:08:02;21.40;99.90
7206;DHT22;3644;53.480;10.004;2023-05-21T09:10:35;21.50;99.90
7206;DHT22;3644;53.480;10.004;2023-05-21T09:13:02;22.00;99.90
7206;DHT22;3644;53.480;10.004;2023-05-21T09:15:28;22.00;99.90
7206;DHT22;3644;53.480;10.004;2023-05-21T09:17:54;22.00;99.90
7206;DHT22;3644;53.480;10.004;2023-05-21T09:20:24;22.10;99.90
7206;DHT22;3644;53.480;10.004;2023-05-21T09:22:51;22.10;99.90
7206;DHT22;3644;53.480;10.004;2023-05-21T09:25:24;22.30;99.90
7206;DHT22;3644;53.480;10.004;2023-05-21T09:27:57;22.10;99.90
7206;DHT22;3644;53.480;10.004;2023-05-21T09:30:23;22.10;99.90
7206;DHT22;3644;53.480;10.004;2023-05-21T09:32:57;22.20;99.90
7206;DHT22;3644;53.480;10.004;2023-05-21T09:35:22;22.60;99.90
7206;DHT22;3644;53.480;10.004;2023-05-21T09:37:49;22.90;99.90
7206;DHT22;3644;53.480;10.004;2023-05-21T09:40:17;22.90;99.90
7206;DHT22;3644;53.480;10.004;2023-05-21T09:42:50;23.00;99.90
7206;DHT22;3644;53.480;10.004;2023-05-21T09:45:24;23.10;99.90
7206;DHT22;3644;53.480;10.004;2023-05-21T09:47:51;23.20;99.90
7206;DHT22;3644;53.480;10.004;2023-05-21T09:50:19;23.30;99.90
7206;DHT22;3644;53.480;10.004;2023-05-21T09:52:46;22.90;99.90
7206;DHT22;3644;53.480;10.004;2023-05-21T09:55:13;22.90;99.90
7206;DHT22;3644;53.480;10.004;2023-05-21T09:57:42;23.00;99.90
7206;DHT22;3644;53.480;10.004;2023-05-21T10:02:44;23.90;99.90
7206;DHT22;3644;53.480;10.004;2023-05-21T10:05:11;24.40;99.90
7206;DHT22;3644;53.480;10.004;2023-05-21T10:07:38;24.30;99.90
7206;DHT22;3644;53.480;10.004;2023-05-21T10:10:06;24.30;99.90
7206;DHT22;3644;53.480;10.004;2023-05-21T10:12:34;24.20;99.90
7206;DHT22;3644;53.480;10.004;2023-05-21T10:15:02;24.20;99.90
7206;DHT22;3644;53.480;10.004;2023-05-21T10:17:29;24.50;99.90
7206;DHT22;3644;53.480;10.004;2023-05-21T10:19:55;24.80;99.90
7206;DHT22;3644;53.480;10.004;2023-05-21T10:22:24;24.80;99.90
7206;DHT22;3644;53.480;10.004;2023-05-21T10:24:51;25.10;99.90
7206;DHT22;3644;53.480;10.004;2023-05-21T10:27:17;25.00;99.90
7206;DHT22;3644;53.480;10.004;2023-05-21T10:29:44;24.40;99.90
7206;DHT22;3644;53.480;10.004;2023-05-21T10:32:14;24.10;99.90
7206;DHT22;3644;53.480;10.004;2023-05-21T10:34:42;24.50;99.90
7206;DHT22;3644;53.480;10.004;2023-05-21T10:37:08;24.70;99.90
7206;DHT22;3644;53.480;10.004;2023-05-21T10:39:38;24.90;99.90
7206;DHT22;3644;53.480;10.004;2023-05-21T10:42:20;24.60;99.90
7206;DHT22;3644;53.480;10.004;2023-05-21T10:47:34;24.80;99.90
7206;DHT22;3644;53.480;10.004;2023-05-21T10:55:51;25.30;99.90
7206;DHT22;3644;53.480;10.004;2023-05-21T10:58:58;25.10;99.90
7206;DHT22;3644;53.480;10.004;2023-05-21T11:01:30;25.10;99.90
7206;DHT22;3644;53.480;10.004;2023-05-21T11:04:00;25.40;99.90
7206;DHT22;3644;53.480;10.004;2023-05-21T11:06:26;25.50;99.90
7206;DHT22;3644;53.480;10.004;2023-05-21T11:08:52;25.40;99.90
7206;DHT22;3644;53.480;10.004;2023-05-21T11:14:33;26.10;99.90
7206;DHT22;3644;53.480;10.004;2023-05-21T11:17:14;25.70;99.90
7206;DHT22;3644;53.480;10.004;2023-05-21T11:19:44;25.50;99.90
7206;DHT22;3644;53.480;10.004;2023-05-21T11:22:26;25.60;99.90
7206;DHT22;3644;53.480;10.004;2023-05-21T11:24:53;26.00;99.90
7206;DHT22;3644;53.480;10.004;2023-05-21T11:27:38;26.20;99.90
7206;DHT22;3644;53.480;10.004;2023-05-21T11:30:17;26.20;99.90
7206;DHT22;3644;53.480;10.004;2023-05-21T11:38:09;26.50;99.90
7206;DHT22;3644;53.480;10.004;2023-05-21T11:40:35;26.20;99.90
7206;DHT22;3644;53.480;10.004;2023-05-21T11:43:01;26.10;99.90
7206;DHT22;3644;53.480;10.004;2023-05-21T11:45:31;26.30;99.90
7206;DHT22;3644;53.480;10.004;2023-05-21T11:47:57;26.00;99.90
7206;DHT22;3644;53.480;10.004;2023-05-21T11:50:23;26.00;99.90
7206;DHT22;3644;53.480;10.004;2023-05-21T11:52:49;25.80;99.90
7206;DHT22;3644;53.480;10.004;2023-05-21T11:55:20;25.70;99.90
7206;DHT22;3644;53.480;10.004;2023-05-21T11:57:46;25.40;99.90
7206;DHT22;3644;53.480;10.004;2023-05-21T12:00:14;25.50;99.90
7206;DHT22;3644;53.480;10.004;2023-05-21T12:02:45;25.90;99.90
7206;DHT22;3644;53.480;10.004;2023-05-21T12:05:11;25.90;99.90
7206;DHT22;3644;53.480;10.004;2023-05-21T12:07:36;25.70;99.90
7206;DHT22;3644;53.480;10.004;2023-05-21T12:10:03;25.70;99.90
7206;DHT22;3644;53.480;10.004;2023-05-21T12:12:30;26.10;99.90
7206;DHT22;3644;53.480;10.004;2023-05-21T12:14:57;26.40;99.90
7206;DHT22;3644;53.480;10.004;2023-05-21T12:17:24;26.50;99.90
7206;DHT22;3644;53.480;10.004;2023-05-21T12:19:53;26.40;99.90
7206;DHT22;3644;53.480;10.004;2023-05-21T12:22:19;26.70;99.90
7206;DHT22;3644;53.480;10.004;2023-05-21T12:24:46;27.00;99.90
7206;DHT22;3644;53.480;10.004;2023-05-21T12:27:12;27.30;99.90
7206;DHT22;3644;53.480;10.004;2023-05-21T12:29:45;27.40;99.90
7206;DHT22;3644;53.480;10.004;2023-05-21T12:32:14;27.10;99.90
7206;DHT22;3644;53.480;10.004;2023-05-21T12:34:45;26.90;99.90
7206;DHT22;3644;53.480;10.004;2023-05-21T12:37:29;27.00;99.90
7206;DHT22;3644;53.480;10.004;2023-05-21T12:40:02;27.20;99.90
7206;DHT22;3644;53.480;10.004;2023-05-21T12:42:32;27.40;99.90
7206;DHT22;3644;53.480;10.004;2023-05-21T12:45:07;27.50;99.90
7206;DHT22;3644;53.480;10.004;2023-05-21T12:47:33;27.70;99.90
7206;DHT22;3644;53.480;10.004;2023-05-21T12:49:59;27.80;99.90
7206;DHT22;3644;53.480;10.004;2023-05-21T12:52:26;27.80;99.90
7206;DHT22;3644;53.480;10.004;2023-05-21T12:54:55;27.90;99.90
7206;DHT22;3644;53.480;10.004;2023-05-21T12:57:23;27.90;99.90
7206;DHT22;3644;53.480;10.004;2023-05-21T12:59:51;28.00;99.90
7206;DHT22;3644;53.480;10.004;2023-05-21T13:04:56;28.20;99.90
7206;DHT22;3644;53.480;10.004;2023-05-21T13:07:23;28.20;99.90
7206;DHT22;3644;53.480;10.004;2023-05-21T13:09:49;28.20;99.90
7206;DHT22;3644;53.480;10.004;2023-05-21T13:12:21;28.50;99.90
7206;DHT22;3644;53.480;10.004;2023-05-21T13:14:54;28.60;99.90
7206;DHT22;3644;53.480;10.004;2023-05-21T13:17:21;28.40;99.90
7206;DHT22;3644;53.480;10.004;2023-05-21T13:20:09;28.60;99.90
7206;DHT22;3644;53.480;10.004;2023-05-21T13:22:45;28.80;99.90
7206;DHT22;3644;53.480;10.004;2023-05-21T13:25:18;29.00;99.90
7206;DHT22;3644;53.480;10.004;2023-05-21T13:27:46;29.20;99.90
7206;DHT22;3644;53.480;10.004;2023-05-21T13:30:12;29.30;99.90
7206;DHT22;3644;53.480;10.004;2023-05-21T13:32:38;28.90;99.90
7206;DHT22;3644;53.480;10.004;2023-05-21T13:35:04;28.50;99.90
7206;DHT22;3644;53.480;10.004;2023-05-21T13:37:30;28.30;99.90
7206;DHT22;3644;53.480;10.004;2023-05-21T13:39:56;28.20;99.90
7206;DHT22;3644;53.480;10.004;2023-05-21T13:42:22;28.20;99.90
7206;DHT22;3644;53.480;10.004;2023-05-21T13:44:47;28.00;99.90
7206;DHT22;3644;53.480;10.004;2023-05-21T13:47:13;28.00;99.90
7206;DHT22;3644;53.480;10.004;2023-05-21T13:49:39;27.50;99.90
7206;DHT22;3644;53.480;10.004;2023-05-21T13:52:06;27.30;99.90
7206;DHT22;3644;53.480;10.004;2023-05-21T13:54:31;27.20;99.90
7206;DHT22;3644;53.480;10.004;2023-05-21T13:56:57;27.30;99.90
7206;DHT22;3644;53.480;10.004;2023-05-21T13:59:23;27.50;99.90
7206;DHT22;3644;53.480;10.004;2023-05-21T14:01:48;27.70;99.90
7206;DHT22;3644;53.480;10.004;2023-05-21T14:04:16;27.40;99.90
7206;DHT22;3644;53.480;10.004;2023-05-21T14:06:42;27.10;99.90
7206;DHT22;3644;53.480;10.004;2023-05-21T14:09:08;26.70;99.90
7206;DHT22;3644;53.480;10.004;2023-05-21T14:11:33;26.70;99.90
7206;DHT22;3644;53.480;10.004;2023-05-21T14:13:59;26.50;99.90
7206;DHT22;3644;53.480;10.004;2023-05-21T14:16:25;26.70;99.90
7206;DHT22;3644;53.480;10.004;2023-05-21T14:18:57;26.70;99.90
7206;DHT22;3644;53.480;10.004;2023-05-21T14:21:24;26.60;99.90
7206;DHT22;3644;53.480;10.004;2023-05-21T14:23:50;26.60;99.90
7206;DHT22;3644;53.480;10.004;2023-05-21T14:26:16;27.00;99.90
7206;DHT22;3644;53.480;10.004;2023-05-21T14:28:43;26.90;99.90
7206;DHT22;3644;53.480;10.004;2023-05-21T14:31:08;26.70;99.90
7206;DHT22;3644;53.480;10.004;2023-05-21T14:33:37;26.40;99.90
7206;DHT22;3644;53.480;10.004;2023-05-21T14:36:04;26.40;99.90
7206;DHT22;3644;53.480;10.004;2023-05-21T14:38:30;26.50;99.90
7206;DHT22;3644;53.480;10.004;2023-05-21T14:40:55;26.70;99.90
7206;DHT22;3644;53.480;10.004;2023-05-21T14:43:21;26.50;99.90
7206;DHT22;3644;53.480;10.004;2023-05-21T14:45:48;26.50;99.90
7206;DHT22;3644;53.480;10.004;2023-05-21T14:48:16;26.40;99.90
7206;DHT22;3644;53.480;10.004;2023-05-21T14:50:42;26.40;99.90
7206;DHT22;3644;53.480;10.004;2023-05-21T14:53:09;26.30;99.90
7206;DHT22;3644;53.480;10.004;2023-05-21T14:55:36;26.40;99.90
7206;DHT22;3644;53.480;10.004;2023-05-21T14:58:03;26.40;99.90
7206;DHT22;3644;53.480;10.004;2023-05-21T15:00:29;26.30;99.90
7206;DHT22;3644;53.480;10.004;2023-05-21T15:02:55;26.30;99.90
7206;DHT22;3644;53.480;10.004;2023-05-21T15:05:21;26.50;99.90
7206;DHT22;3644;53.480;10.004;2023-05-21T15:07:46;26.40;99.90
7206;DHT22;3644;53.480;10.004;2023-05-21T15:10:12;26.40;99.90
7206;DHT22;3644;53.480;10.004;2023-05-21T15:12:38;26.40;99.90
7206;DHT22;3644;53.480;10.004;2023-05-21T15:15:05;26.40;99.90
7206;DHT22;3644;53.480;10.004;2023-05-21T15:17:31;26.40;99.90
7206;DHT22;3644;53.480;10.004;2023-05-21T15:19:57;26.60;99.90
7206;DHT22;3644;53.480;10.004;2023-05-21T15:22:26;27.00;99.90
7206;DHT22;3644;53.480;10.004;2023-05-21T15:24:51;27.10;99.90
7206;DHT22;3644;53.480;10.004;2023-05-21T15:27:17;27.10;99.90
7206;DHT22;3644;53.480;10.004;2023-05-21T15:29:42;27.00;99.90
7206;DHT22;3644;53.480;10.004;2023-05-21T15:32:10;27.00;99.90
7206;DHT22;3644;53.480;10.004;2023-05-21T15:34:35;27.10;99.90
7206;DHT22;3644;53.480;10.004;2023-05-21T15:37:01;26.90;99.90
7206;DHT22;3644;53.480;10.004;2023-05-21T15:39:27;26.60;99.90
7206;DHT22;3644;53.480;10.004;2023-05-21T15:41:53;26.80;99.90
7206;DHT22;3644;53.480;10.004;2023-05-21T15:44:19;26.60;99.90
7206;DHT22;3644;53.480;10.004;2023-05-21T15:46:45;26.70;99.90
7206;DHT22;3644;53.480;10.004;2023-05-21T15:49:10;26.80;99.90
7206;DHT22;3644;53.480;10.004;2023-05-21T15:51:36;26.70;99.90
7206;DHT22;3644;53.480;10.004;2023-05-21T15:54:02;26.40;99.90
7206;DHT22;3644;53.480;10.004;2023-05-21T15:56:28;26.50;99.90
7206;DHT22;3644;53.480;10.004;2023-05-21T15:58:53;26.70;99.90
7206;DHT22;3644;53.480;10.004;2023-05-21T16:01:20;26.70;99.90
7206;DHT22;3644;53.480;10.004;2023-05-21T16:03:46;26.70;99.90
7206;DHT22;3644;53.480;10.004;2023-05-21T16:06:11;26.60;99.90
7206;DHT22;3644;53.480;10.004;2023-05-21T16:08:37;26.30;99.90